CheckWX is a tool to help pilots better visualize weather data.  It is not intended as a substitute for an official pre-flight weather briefing.

00:39:32 UTC

EGTC METAR
Cranfield Airport
Cranfield, United Kingdom
Current

7 hours ago

EGTC 261750Z VRB02KT 9999 FEW042 10/04 Q1032
Observed
Mar-26 @ 17:50 UTC
Wind
  • Variable at 2 KTS
Visibility
10,000+ meters
Flight Rules
VFR
Cloud Levels
  • Few at 4,200' AGL
Temperature
10°C / 50°F
Dewpoint
C / 39°F
Humidity
67%
Altimeter
30.47" Hg
Pressure
1031.91 hPa
Previous

7 hours ago

EGTC 261720Z VRB03KT 9999 FEW042 11/04 Q1032
Observed
Mar-26 @ 17:20 UTC
Wind
  • Variable at 3 KTS
Visibility
10,000+ meters
Flight Rules
VFR
Cloud Levels
  • Few at 4,200' AGL
Temperature
11°C / 52°F
Dewpoint
C / 39°F
Humidity
62%
Altimeter
30.47" Hg
Pressure
1031.91 hPa
Previous

8 hours ago

EGTC 261650Z VRB02KT 9999 FEW041 11/04 Q1032
Observed
Mar-26 @ 16:50 UTC
Wind
  • Variable at 2 KTS
Visibility
10,000+ meters
Flight Rules
VFR
Cloud Levels
  • Few at 4,100' AGL
Temperature
11°C / 52°F
Dewpoint
C / 39°F
Humidity
62%
Altimeter
30.47" Hg
Pressure
1031.91 hPa